sensor_id;sensor_type;location;lat;lon;timestamp;pressure;altitude;pressure_sealevel;temperature;humidity
80382;BME280;69692;55.820;37.490;2023-07-13T00:00:42;98858.06;;;13.20;78.21
80382;BME280;69692;55.820;37.490;2023-07-13T00:03:09;98857.53;;;13.18;78.13
80382;BME280;69692;55.820;37.490;2023-07-13T00:05:35;98858.59;;;13.12;78.37
80382;BME280;69692;55.820;37.490;2023-07-13T00:08:01;98862.63;;;13.09;78.31
80382;BME280;69692;55.820;37.490;2023-07-13T00:10:27;98862.34;;;13.11;78.62
80382;BME280;69692;55.820;37.490;2023-07-13T00:12:53;98875.31;;;13.14;78.58
80382;BME280;69692;55.820;37.490;2023-07-13T00:15:24;98872.09;;;13.12;78.59
80382;BME280;69692;55.820;37.490;2023-07-13T00:17:52;98861.28;;;13.12;78.30
80382;BME280;69692;55.820;37.490;2023-07-13T00:20:19;98865.88;;;13.11;79.02
80382;BME280;69692;55.820;37.490;2023-07-13T00:22:48;98856.69;;;13.12;78.65
80382;BME280;69692;55.820;37.490;2023-07-13T00:25:15;98857.78;;;13.11;78.97
80382;BME280;69692;55.820;37.490;2023-07-13T00:27:42;98854.25;;;13.11;79.00
80382;BME280;69692;55.820;37.490;2023-07-13T00:30:10;98855.56;;;13.08;79.01
80382;BME280;69692;55.820;37.490;2023-07-13T00:32:37;98860.16;;;13.08;79.19
80382;BME280;69692;55.820;37.490;2023-07-13T00:35:03;98853.44;;;13.10;78.80
80382;BME280;69692;55.820;37.490;2023-07-13T00:37:31;98852.63;;;13.10;78.90
80382;BME280;69692;55.820;37.490;2023-07-13T00:39:57;98858.28;;;13.08;78.98
80382;BME280;69692;55.820;37.490;2023-07-13T00:42:23;98849.66;;;13.11;79.15
80382;BME280;69692;55.820;37.490;2023-07-13T00:47:38;98853.94;;;13.07;78.90
80382;BME280;69692;55.820;37.490;2023-07-13T00:50:06;98851.25;;;13.07;79.08
80382;BME280;69692;55.820;37.490;2023-07-13T00:52:35;98852.34;;;13.06;79.21
80382;BME280;69692;55.820;37.490;2023-07-13T00:55:02;98854.53;;;13.09;78.88
80382;BME280;69692;55.820;37.490;2023-07-13T00:57:29;98846.44;;;13.09;79.08
80382;BME280;69692;55.820;37.490;2023-07-13T00:59:58;98852.63;;;13.10;79.12
80382;BME280;69692;55.820;37.490;2023-07-13T01:02:25;98842.66;;;13.10;79.15
80382;BME280;69692;55.820;37.490;2023-07-13T01:04:51;98849.66;;;13.11;78.89
80382;BME280;69692;55.820;37.490;2023-07-13T01:07:18;98851.28;;;13.12;79.08
80382;BME280;69692;55.820;37.490;2023-07-13T01:09:44;98847.78;;;13.12;79.11
80382;BME280;69692;55.820;37.490;2023-07-13T01:12:11;98842.38;;;13.12;79.38
80382;BME280;69692;55.820;37.490;2023-07-13T01:14:37;98846.44;;;13.14;79.17
80382;BME280;69692;55.820;37.490;2023-07-13T01:17:03;98838.88;;;13.11;79.24
80382;BME280;69692;55.820;37.490;2023-07-13T01:19:36;98835.34;;;13.16;79.36
80382;BME280;69692;55.820;37.490;2023-07-13T01:22:11;98849.66;;;13.17;79.57
80382;BME280;69692;55.820;37.490;2023-07-13T01:24:39;98836.72;;;13.19;79.51
80382;BME280;69692;55.820;37.490;2023-07-13T01:27:07;98829.69;;;13.18;79.51
80382;BME280;69692;55.820;37.490;2023-07-13T01:29:36;98832.38;;;13.18;79.40
80382;BME280;69692;55.820;37.490;2023-07-13T01:32:14;98829.72;;;13.23;79.48
80382;BME280;69692;55.820;37.490;2023-07-13T01:34:40;98829.13;;;13.16;79.78
80382;BME280;69692;55.820;37.490;2023-07-13T01:37:11;98819.69;;;13.13;79.60
80382;BME280;69692;55.820;37.490;2023-07-13T01:39:38;98817.53;;;13.15;79.61
80382;BME280;69692;55.820;37.490;2023-07-13T01:42:04;98819.97;;;13.17;79.43
80382;BME280;69692;55.820;37.490;2023-07-13T01:44:30;98821.03;;;13.16;79.70
80382;BME280;69692;55.820;37.490;2023-07-13T01:46:56;98817.00;;;13.18;79.67
80382;BME280;69692;55.820;37.490;2023-07-13T01:49:21;98828.63;;;13.19;79.49
80382;BME280;69692;55.820;37.490;2023-07-13T01:51:49;98828.63;;;13.19;79.57
80382;BME280;69692;55.820;37.490;2023-07-13T01:54:14;98826.44;;;13.16;79.93
80382;BME280;69692;55.820;37.490;2023-07-13T01:56:40;98818.59;;;13.14;79.89
80382;BME280;69692;55.820;37.490;2023-07-13T01:59:08;98822.16;;;13.20;79.71
80382;BME280;69692;55.820;37.490;2023-07-13T02:01:34;98824.31;;;13.23;79.61
80382;BME280;69692;55.820;37.490;2023-07-13T02:04:00;98818.13;;;13.27;79.39
80382;BME280;69692;55.820;37.490;2023-07-13T02:06:28;98812.41;;;13.24;79.50
80382;BME280;69692;55.820;37.490;2023-07-13T02:08:54;98808.91;;;13.23;79.49
80382;BME280;69692;55.820;37.490;2023-07-13T02:11:20;98804.88;;;13.26;79.56
80382;BME280;69692;55.820;37.490;2023-07-13T02:13:46;98803.81;;;13.27;79.59
80382;BME280;69692;55.820;37.490;2023-07-13T02:16:12;98807.59;;;13.31;79.43
80382;BME280;69692;55.820;37.490;2023-07-13T02:18:38;98804.34;;;13.34;79.32
80382;BME280;69692;55.820;37.490;2023-07-13T02:21:04;98808.13;;;13.38;79.21
80382;BME280;69692;55.820;37.490;2023-07-13T02:23:30;98808.41;;;13.41;78.94
80382;BME280;69692;55.820;37.490;2023-07-13T02:25:57;98803.28;;;13.40;78.84
80382;BME280;69692;55.820;37.490;2023-07-13T02:28:23;98809.75;;;13.44;78.85
80382;BME280;69692;55.820;37.490;2023-07-13T02:30:49;98800.31;;;13.41;78.75
80382;BME280;69692;55.820;37.490;2023-07-13T02:33:15;98796.25;;;13.44;78.59
80382;BME280;69692;55.820;37.490;2023-07-13T02:35:41;98798.94;;;13.44;78.28
80382;BME280;69692;55.820;37.490;2023-07-13T02:38:07;98792.03;;;15.03;82.62
80382;BME280;69692;55.820;37.490;2023-07-13T02:40:32;98789.06;;;16.54;75.46
80382;BME280;69692;55.820;37.490;2023-07-13T02:42:59;98780.84;;;16.12;68.67
80382;BME280;69692;55.820;37.490;2023-07-13T02:45:25;98789.75;;;15.59;70.11
80382;BME280;69692;55.820;37.490;2023-07-13T02:47:51;98784.06;;;15.16;71.54
80382;BME280;69692;55.820;37.490;2023-07-13T02:50:17;98793.00;;;14.78;72.86
80382;BME280;69692;55.820;37.490;2023-07-13T02:52:43;98798.75;;;14.56;74.07
80382;BME280;69692;55.820;37.490;2023-07-13T02:55:09;98795.31;;;14.30;74.95
80382;BME280;69692;55.820;37.490;2023-07-13T02:57:36;98792.66;;;14.15;75.80
80382;BME280;69692;55.820;37.490;2023-07-13T03:00:03;98797.53;;;14.08;76.24
80382;BME280;69692;55.820;37.490;2023-07-13T03:02:34;98799.44;;;14.02;76.07
80382;BME280;69692;55.820;37.490;2023-07-13T03:05:01;98788.09;;;13.95;76.54
80382;BME280;69692;55.820;37.490;2023-07-13T03:07:30;98787.81;;;13.96;76.55
80382;BME280;69692;55.820;37.490;2023-07-13T03:09:57;98783.75;;;13.94;76.57
80382;BME280;69692;55.820;37.490;2023-07-13T03:12:25;98780.00;;;13.85;76.99
80382;BME280;69692;55.820;37.490;2023-07-13T03:14:51;98785.41;;;13.80;76.92
80382;BME280;69692;55.820;37.490;2023-07-13T03:17:17;98785.16;;;13.76;77.33
80382;BME280;69692;55.820;37.490;2023-07-13T03:19:43;98794.34;;;13.70;77.63
80382;BME280;69692;55.820;37.490;2023-07-13T03:22:10;98795.69;;;13.67;77.97
80382;BME280;69692;55.820;37.490;2023-07-13T03:24:38;98790.03;;;13.64;77.87
80382;BME280;69692;55.820;37.490;2023-07-13T03:27:05;98795.97;;;13.66;77.92
80382;BME280;69692;55.820;37.490;2023-07-13T03:29:34;98798.38;;;13.67;77.93
80382;BME280;69692;55.820;37.490;2023-07-13T03:32:01;98801.13;;;13.57;78.26
80382;BME280;69692;55.820;37.490;2023-07-13T03:34:26;98800.03;;;13.58;78.43
80382;BME280;69692;55.820;37.490;2023-07-13T03:36:56;98799.47;;;13.61;78.22
80382;BME280;69692;55.820;37.490;2023-07-13T03:39:22;98799.19;;;13.68;78.32
80382;BME280;69692;55.820;37.490;2023-07-13T03:41:52;98793.53;;;13.64;78.42
80382;BME280;69692;55.820;37.490;2023-07-13T03:44:18;98799.47;;;13.66;78.50
80382;BME280;69692;55.820;37.490;2023-07-13T03:46:48;98795.16;;;13.65;78.24
80382;BME280;69692;55.820;37.490;2023-07-13T03:49:14;98800.84;;;13.69;78.32
80382;BME280;69692;55.820;37.490;2023-07-13T03:51:40;98797.31;;;13.68;78.18
80382;BME280;69692;55.820;37.490;2023-07-13T03:54:06;98796.78;;;13.71;78.20
80382;BME280;69692;55.820;37.490;2023-07-13T03:56:32;98810.56;;;13.75;78.25
80382;BME280;69692;55.820;37.490;2023-07-13T03:58:59;98804.06;;;13.81;78.04
80382;BME280;69692;55.820;37.490;2023-07-13T04:01:26;98804.59;;;13.88;77.62
80382;BME280;69692;55.820;37.490;2023-07-13T04:03:52;98800.53;;;13.91;77.63
80382;BME280;69692;55.820;37.490;2023-07-13T04:06:25;98805.94;;;13.96;77.84
80382;BME280;69692;55.820;37.490;2023-07-13T04:08:54;98804.84;;;13.97;77.53
80382;BME280;69692;55.820;37.490;2023-07-13T04:11:22;98808.63;;;13.96;77.52
80382;BME280;69692;55.820;37.490;2023-07-13T04:13:49;98816.22;;;13.99;77.98
80382;BME280;69692;55.820;37.490;2023-07-13T04:16:16;98814.84;;;13.96;77.35
80382;BME280;69692;55.820;37.490;2023-07-13T04:18:43;98810.00;;;13.93;77.94
80382;BME280;69692;55.820;37.490;2023-07-13T04:21:09;98817.03;;;13.94;77.73
80382;BME280;69692;55.820;37.490;2023-07-13T04:23:36;98818.13;;;13.93;77.99
80382;BME280;69692;55.820;37.490;2023-07-13T04:26:03;98805.66;;;13.97;77.70
80382;BME280;69692;55.820;37.490;2023-07-13T04:28:29;98817.28;;;13.98;77.58
80382;BME280;69692;55.820;37.490;2023-07-13T04:30:56;98811.06;;;13.97;77.77
80382;BME280;69692;55.820;37.490;2023-07-13T04:33:22;98802.41;;;13.95;77.77
80382;BME280;69692;55.820;37.490;2023-07-13T04:35:50;98797.53;;;13.97;77.70
80382;BME280;69692;55.820;37.490;2023-07-13T04:38:24;98804.06;;;14.01;77.61
80382;BME280;69692;55.820;37.490;2023-07-13T04:40:51;98802.69;;;14.04;77.42
80382;BME280;69692;55.820;37.490;2023-07-13T04:43:18;98797.78;;;14.11;77.74
80382;BME280;69692;55.820;37.490;2023-07-13T04:45:44;98795.63;;;14.18;77.31
80382;BME280;69692;55.820;37.490;2023-07-13T04:48:10;98786.94;;;14.21;76.77
80382;BME280;69692;55.820;37.490;2023-07-13T04:50:37;98798.84;;;14.25;76.75
80382;BME280;69692;55.820;37.490;2023-07-13T04:53:03;98792.63;;;14.25;76.50
80382;BME280;69692;55.820;37.490;2023-07-13T04:55:30;98796.94;;;14.31;76.84
80382;BME280;69692;55.820;37.490;2023-07-13T04:57:57;98809.63;;;14.36;76.64
80382;BME280;69692;55.820;37.490;2023-07-13T05:00:25;98811.22;;;14.42;76.24
80382;BME280;69692;55.820;37.490;2023-07-13T05:02:51;98807.47;;;14.48;76.11
80382;BME280;69692;55.820;37.490;2023-07-13T05:05:17;98808.78;;;14.55;75.84
80382;BME280;69692;55.820;37.490;2023-07-13T05:07:42;98808.50;;;14.62;75.48
80382;BME280;69692;55.820;37.490;2023-07-13T05:10:09;98825.03;;;15.10;81.37
80382;BME280;69692;55.820;37.490;2023-07-13T05:12:35;98816.38;;;16.87;74.41
80382;BME280;69692;55.820;37.490;2023-07-13T05:15:02;98803.09;;;18.07;68.96
80382;BME280;69692;55.820;37.490;2023-07-13T05:17:30;98814.09;;;18.02;63.66
80382;BME280;69692;55.820;37.490;2023-07-13T05:19:56;98818.94;;;17.35;65.53
80382;BME280;69692;55.820;37.490;2023-07-13T05:22:22;98810.16;;;16.81;67.23
80382;BME280;69692;55.820;37.490;2023-07-13T05:24:48;98810.94;;;16.39;69.23
80382;BME280;69692;55.820;37.490;2023-07-13T05:27:13;98808.28;;;16.10;70.08
80382;BME280;69692;55.820;37.490;2023-07-13T05:29:39;98806.22;;;15.97;70.45
80382;BME280;69692;55.820;37.490;2023-07-13T05:32:05;98799.00;;;15.87;70.83
80382;BME280;69692;55.820;37.490;2023-07-13T05:34:31;98803.38;;;15.83;71.53
80382;BME280;69692;55.820;37.490;2023-07-13T05:36:57;98793.66;;;15.77;71.71
80382;BME280;69692;55.820;37.490;2023-07-13T05:39:23;98797.22;;;15.72;71.13
80382;BME280;69692;55.820;37.490;2023-07-13T05:41:50;98806.69;;;15.75;71.72
80382;BME280;69692;55.820;37.490;2023-07-13T05:44:16;98799.63;;;15.79;71.93
80382;BME280;69692;55.820;37.490;2023-07-13T05:46:42;98794.44;;;15.83;71.34
80382;BME280;69692;55.820;37.490;2023-07-13T05:49:07;98789.25;;;15.86;71.46
80382;BME280;69692;55.820;37.490;2023-07-13T05:51:33;98802.06;;;15.80;70.71
80382;BME280;69692;55.820;37.490;2023-07-13T05:53:59;98805.94;;;15.69;70.88
80382;BME280;69692;55.820;37.490;2023-07-13T05:56:25;98803.00;;;15.61;71.37
80382;BME280;69692;55.820;37.490;2023-07-13T05:58:52;98787.28;;;15.63;70.59
80382;BME280;69692;55.820;37.490;2023-07-13T06:01:17;98786.75;;;15.61;70.51
80382;BME280;69692;55.820;37.490;2023-07-13T06:03:46;98789.97;;;15.68;70.67
80382;BME280;69692;55.820;37.490;2023-07-13T06:06:12;98779.06;;;15.73;70.42
80382;BME280;69692;55.820;37.490;2023-07-13T06:08:38;98787.09;;;15.83;70.32
80382;BME280;69692;55.820;37.490;2023-07-13T06:11:18;98783.06;;;15.80;69.18
80382;BME280;69692;55.820;37.490;2023-07-13T06:13:45;98778.97;;;15.83;69.49
80382;BME280;69692;55.820;37.490;2023-07-13T06:16:12;98772.38;;;15.89;69.39
80382;BME280;69692;55.820;37.490;2023-07-13T06:18:39;98769.63;;;15.94;68.71
80382;BME280;69692;55.820;37.490;2023-07-13T06:21:14;98771.13;;;16.05;68.63
80382;BME280;69692;55.820;37.490;2023-07-13T06:23:40;98767.88;;;16.08;67.73
80382;BME280;69692;55.820;37.490;2023-07-13T06:26:07;98771.63;;;16.13;68.02
80382;BME280;69692;55.820;37.490;2023-07-13T06:28:35;98760.09;;;16.21;68.23
80382;BME280;69692;55.820;37.490;2023-07-13T06:31:02;98751.56;;;16.32;67.47
80382;BME280;69692;55.820;37.490;2023-07-13T06:33:27;98759.38;;;16.39;66.32
80382;BME280;69692;55.820;37.490;2023-07-13T06:35:53;98765.81;;;16.43;66.27
80382;BME280;69692;55.820;37.490;2023-07-13T06:38:21;98770.16;;;16.44;65.80
80382;BME280;69692;55.820;37.490;2023-07-13T06:40:47;98770.53;;;16.37;66.39
80382;BME280;69692;55.820;37.490;2023-07-13T06:43:13;98765.94;;;16.33;65.94
80382;BME280;69692;55.820;37.490;2023-07-13T06:45:45;98773.25;;;16.37;66.22
80382;BME280;69692;55.820;37.490;2023-07-13T06:48:14;98768.06;;;16.36;66.12
80382;BME280;69692;55.820;37.490;2023-07-13T06:50:41;98767.56;;;16.34;66.39
80382;BME280;69692;55.820;37.490;2023-07-13T06:53:07;98763.75;;;16.35;66.39
80382;BME280;69692;55.820;37.490;2023-07-13T06:55:33;98764.00;;;16.38;66.81
80382;BME280;69692;55.820;37.490;2023-07-13T06:57:59;98762.81;;;16.45;66.64
80382;BME280;69692;55.820;37.490;2023-07-13T07:00:24;98760.41;;;16.43;66.01
80382;BME280;69692;55.820;37.490;2023-07-13T07:02:50;98752.75;;;16.45;66.17
80382;BME280;69692;55.820;37.490;2023-07-13T07:05:16;98752.19;;;16.48;65.45
80382;BME280;69692;55.820;37.490;2023-07-13T07:07:42;98751.03;;;16.54;65.76
80382;BME280;69692;55.820;37.490;2023-07-13T07:10:08;98755.50;;;16.64;65.23
80382;BME280;69692;55.820;37.490;2023-07-13T07:12:34;98748.94;;;16.70;65.50
80382;BME280;69692;55.820;37.490;2023-07-13T07:15:00;98758.63;;;16.76;63.81
80382;BME280;69692;55.820;37.490;2023-07-13T07:17:26;98753.66;;;16.83;63.45
80382;BME280;69692;55.820;37.490;2023-07-13T07:19:52;98755.50;;;16.88;63.59
80382;BME280;69692;55.820;37.490;2023-07-13T07:22:20;98764.63;;;16.97;63.75
80382;BME280;69692;55.820;37.490;2023-07-13T07:24:46;98765.97;;;16.94;63.22
80382;BME280;69692;55.820;37.490;2023-07-13T07:27:12;98776.13;;;16.89;63.79
80382;BME280;69692;55.820;37.490;2023-07-13T07:29:38;98786.25;;;16.83;63.96
80382;BME280;69692;55.820;37.490;2023-07-13T07:32:04;98783.97;;;16.72;63.04
80382;BME280;69692;55.820;37.490;2023-07-13T07:34:31;98788.59;;;16.66;64.28
80382;BME280;69692;55.820;37.490;2023-07-13T07:37:00;98789.50;;;16.61;64.29
80382;BME280;69692;55.820;37.490;2023-07-13T07:39:27;98798.75;;;16.60;65.31
80382;BME280;69692;55.820;37.490;2023-07-13T07:41:53;98776.50;;;16.58;65.85
80382;BME280;69692;55.820;37.490;2023-07-13T07:44:19;98788.53;;;16.52;65.28
80382;BME280;69692;55.820;37.490;2023-07-13T07:46:44;98802.38;;;16.51;66.33
80382;BME280;69692;55.820;37.490;2023-07-13T07:49:10;98797.31;;;16.44;66.22
80382;BME280;69692;55.820;37.490;2023-07-13T07:51:37;98793.03;;;16.38;66.26
80382;BME280;69692;55.820;37.490;2023-07-13T07:54:04;98799.56;;;16.37;66.53
80382;BME280;69692;55.820;37.490;2023-07-13T07:56:30;98794.16;;;16.37;67.51
80382;BME280;69692;55.820;37.490;2023-07-13T07:58:56;98794.16;;;16.37;68.25
80382;BME280;69692;55.820;37.490;2023-07-13T08:01:22;98783.84;;;16.34;67.50
80382;BME280;69692;55.820;37.490;2023-07-13T08:03:48;98778.13;;;16.35;67.66
80382;BME280;69692;55.820;37.490;2023-07-13T08:06:14;98787.38;;;16.34;67.84
80382;BME280;69692;55.820;37.490;2023-07-13T08:08:40;98781.72;;;16.31;66.82
80382;BME280;69692;55.820;37.490;2023-07-13T08:11:07;98790.88;;;16.35;65.44
80382;BME280;69692;55.820;37.490;2023-07-13T08:13:34;98784.09;;;16.37;66.66
80382;BME280;69692;55.820;37.490;2023-07-13T08:16:01;98781.63;;;16.36;66.06
80382;BME280;69692;55.820;37.490;2023-07-13T08:18:27;98788.72;;;16.37;65.93
80382;BME280;69692;55.820;37.490;2023-07-13T08:20:55;98788.16;;;16.35;66.07
80382;BME280;69692;55.820;37.490;2023-07-13T08:23:25;98783.84;;;16.34;66.42
80382;BME280;69692;55.820;37.490;2023-07-13T08:25:52;98789.84;;;16.31;67.23
80382;BME280;69692;55.820;37.490;2023-07-13T08:28:19;98785.00;;;16.28;67.52
80382;BME280;69692;55.820;37.490;2023-07-13T08:30:46;98781.25;;;16.24;67.46
80382;BME280;69692;55.820;37.490;2023-07-13T08:33:15;98783.16;;;16.23;67.85
80382;BME280;69692;55.820;37.490;2023-07-13T08:35:41;98786.72;;;16.19;68.71
80382;BME280;69692;55.820;37.490;2023-07-13T08:38:07;98782.09;;;16.19;68.03
80382;BME280;69692;55.820;37.490;2023-07-13T08:40:34;98800.81;;;16.21;68.50
80382;BME280;69692;55.820;37.490;2023-07-13T08:43:00;98795.38;;;16.21;69.21
80382;BME280;69692;55.820;37.490;2023-07-13T08:45:32;98796.56;;;16.15;68.40
80382;BME280;69692;55.820;37.490;2023-07-13T08:48:09;98803.16;;;16.03;69.59
80382;BME280;69692;55.820;37.490;2023-07-13T08:53:24;98806.97;;;16.02;70.69
80382;BME280;69692;55.820;37.490;2023-07-13T08:55:57;98813.50;;;16.01;71.07
80382;BME280;69692;55.820;37.490;2023-07-13T08:58:25;98805.13;;;15.98;71.94
80382;BME280;69692;55.820;37.490;2023-07-13T09:04:04;98810.13;;;15.86;72.73
80382;BME280;69692;55.820;37.490;2023-07-13T09:09:35;98817.53;;;15.75;73.99
80382;BME280;69692;55.820;37.490;2023-07-13T09:14:50;98832.00;;;15.65;74.71
80382;BME280;69692;55.820;37.490;2023-07-13T09:19:49;98831.47;;;15.58;75.85
80382;BME280;69692;55.820;37.490;2023-07-13T09:22:20;98829.56;;;15.59;75.89
80382;BME280;69692;55.820;37.490;2023-07-13T09:25:51;98832.06;;;15.55;77.22
80382;BME280;69692;55.820;37.490;2023-07-13T09:27:53;98827.44;;;15.56;77.08
80382;BME280;69692;55.820;37.490;2023-07-13T09:31:01;98826.63;;;15.55;76.98
80382;BME280;69692;55.820;37.490;2023-07-13T09:33:24;98825.00;;;15.54;76.99
80382;BME280;69692;55.820;37.490;2023-07-13T09:35:55;98828.75;;;15.58;78.06
80382;BME280;69692;55.820;37.490;2023-07-13T09:38:27;98829.34;;;15.55;78.08
80382;BME280;69692;55.820;37.490;2023-07-13T09:43:34;98838.03;;;15.52;78.69
80382;BME280;69692;55.820;37.490;2023-07-13T09:46:00;98826.97;;;15.48;78.06
80382;BME280;69692;55.820;37.490;2023-07-13T09:48:34;98824.78;;;15.50;78.71
80382;BME280;69692;55.820;37.490;2023-07-13T09:51:09;98830.78;;;15.47;78.53
80382;BME280;69692;55.820;37.490;2023-07-13T09:53:41;98823.44;;;15.48;77.33
80382;BME280;69692;55.820;37.490;2023-07-13T09:56:19;98815.31;;;15.48;78.13
80382;BME280;69692;55.820;37.490;2023-07-13T09:58:45;98824.50;;;15.47;78.68
80382;BME280;69692;55.820;37.490;2023-07-13T10:01:11;98816.94;;;15.49;77.65
80382;BME280;69692;55.820;37.490;2023-07-13T10:03:39;98808.50;;;15.50;79.03
80382;BME280;69692;55.820;37.490;2023-07-13T10:06:19;98819.34;;;15.50;79.04
80382;BME280;69692;55.820;37.490;2023-07-13T10:08:46;98828.31;;;15.46;78.78
80382;BME280;69692;55.820;37.490;2023-07-13T10:11:18;98824.28;;;15.43;79.53
80382;BME280;69692;55.820;37.490;2023-07-13T10:16:38;98826.69;;;15.45;79.97
80382;BME280;69692;55.820;37.490;2023-07-13T10:19:23;98830.50;;;15.44;80.49
80382;BME280;69692;55.820;37.490;2023-07-13T10:22:02;98821.00;;;15.46;80.15
80382;BME280;69692;55.820;37.490;2023-07-13T10:24:37;98820.47;;;15.44;79.62
80382;BME280;69692;55.820;37.490;2023-07-13T10:27:15;98828.13;;;15.37;79.02
80382;BME280;69692;55.820;37.490;2023-07-13T10:32:35;98823.31;;;15.24;79.40
80382;BME280;69692;55.820;37.490;2023-07-13T10:35:01;98826.84;;;15.25;80.36
80382;BME280;69692;55.820;37.490;2023-07-13T10:40:14;98833.69;;;15.12;79.42
80382;BME280;69692;55.820;37.490;2023-07-13T10:42:47;98833.72;;;15.07;79.19
80382;BME280;69692;55.820;37.490;2023-07-13T10:45:16;98835.38;;;15.03;80.26
80382;BME280;69692;55.820;37.490;2023-07-13T10:47:43;98846.75;;;15.00;80.75
80382;BME280;69692;55.820;37.490;2023-07-13T10:50:25;98845.13;;;14.99;80.72
80382;BME280;69692;55.820;37.490;2023-07-13T10:52:54;98845.69;;;14.96;80.32
80382;BME280;69692;55.820;37.490;2023-07-13T10:58:19;98841.94;;;14.86;80.80
80382;BME280;69692;55.820;37.490;2023-07-13T11:03:36;98838.16;;;14.87;81.67
80382;BME280;69692;55.820;37.490;2023-07-13T11:08:59;98839.50;;;14.85;80.87
80382;BME280;69692;55.820;37.490;2023-07-13T11:11:43;98831.38;;;14.85;80.22
80382;BME280;69692;55.820;37.490;2023-07-13T11:15:03;98832.72;;;14.87;80.55
80382;BME280;69692;55.820;37.490;2023-07-13T11:17:47;98836.00;;;14.89;80.43
80382;BME280;69692;55.820;37.490;2023-07-13T11:25:21;98842.47;;;14.94;80.61
80382;BME280;69692;55.820;37.490;2023-07-13T11:30:37;98834.34;;;14.94;81.04
80382;BME280;69692;55.820;37.490;2023-07-13T11:33:18;98841.66;;;14.93;81.46
80382;BME280;69692;55.820;37.490;2023-07-13T11:35:51;98831.91;;;14.92;81.82
80382;BME280;69692;55.820;37.490;2023-07-13T11:38:42;98830.56;;;14.89;82.30
80382;BME280;69692;55.820;37.490;2023-07-13T11:43:39;98834.06;;;14.95;82.61
80382;BME280;69692;55.820;37.490;2023-07-13T11:46:13;98836.50;;;14.97;83.14
80382;BME280;69692;55.820;37.490;2023-07-13T11:48:39;98839.72;;;14.99;82.90
80382;BME280;69692;55.820;37.490;2023-07-13T11:51:05;98840.81;;;14.98;82.10
80382;BME280;69692;55.820;37.490;2023-07-13T11:53:45;98827.28;;;14.98;82.82
80382;BME280;69692;55.820;37.490;2023-07-13T11:56:12;98842.44;;;14.99;83.08
80382;BME280;69692;55.820;37.490;2023-07-13T11:58:38;98831.63;;;14.94;82.64
80382;BME280;69692;55.820;37.490;2023-07-13T12:01:04;98838.38;;;14.96;83.01
80382;BME280;69692;55.820;37.490;2023-07-13T12:03:32;98835.38;;;15.03;83.41
80382;BME280;69692;55.820;37.490;2023-07-13T12:06:01;98839.72;;;15.04;83.41
80382;BME280;69692;55.820;37.490;2023-07-13T12:08:28;98839.44;;;15.00;83.16
80382;BME280;69692;55.820;37.490;2023-07-13T12:11:04;98850.56;;;14.99;83.32
80382;BME280;69692;55.820;37.490;2023-07-13T12:13:36;98839.47;;;14.95;83.36
80382;BME280;69692;55.820;37.490;2023-07-13T12:16:11;98840.56;;;14.94;83.46
80382;BME280;69692;55.820;37.490;2023-07-13T12:18:38;98843.53;;;14.98;83.50
80382;BME280;69692;55.820;37.490;2023-07-13T12:21:04;98843.78;;;15.01;83.76
80382;BME280;69692;55.820;37.490;2023-07-13T12:23:32;98839.97;;;15.02;83.57
80382;BME280;69692;55.820;37.490;2023-07-13T12:26:02;98835.41;;;14.98;83.00
80382;BME280;69692;55.820;37.490;2023-07-13T12:28:37;98825.66;;;14.97;83.79
80382;BME280;69692;55.820;37.490;2023-07-13T12:31:06;98822.94;;;14.97;84.01
80382;BME280;69692;55.820;37.490;2023-07-13T12:33:33;98827.28;;;14.98;82.71
80382;BME280;69692;55.820;37.490;2023-07-13T12:36:05;98821.31;;;14.96;83.29
80382;BME280;69692;55.820;37.490;2023-07-13T12:38:32;98824.28;;;14.99;83.35
80382;BME280;69692;55.820;37.490;2023-07-13T12:40:58;98827.78;;;15.05;82.96
80382;BME280;69692;55.820;37.490;2023-07-13T12:43:26;98821.56;;;15.04;83.55
80382;BME280;69692;55.820;37.490;2023-07-13T12:46:05;98824.28;;;15.04;83.70
80382;BME280;69692;55.820;37.490;2023-07-13T12:48:42;98820.47;;;15.05;83.25
80382;BME280;69692;55.820;37.490;2023-07-13T12:51:13;98812.34;;;15.05;83.27
80382;BME280;69692;55.820;37.490;2023-07-13T12:53:48;98812.34;;;15.05;83.05
80382;BME280;69692;55.820;37.490;2023-07-13T12:56:24;98805.03;;;15.06;82.58
80382;BME280;69692;55.820;37.490;2023-07-13T12:58:58;98819.13;;;15.03;82.10
80382;BME280;69692;55.820;37.490;2023-07-13T13:01:32;98807.75;;;15.01;82.46
80382;BME280;69692;55.820;37.490;2023-07-13T13:04:02;98813.97;;;15.01;81.89
80382;BME280;69692;55.820;37.490;2023-07-13T13:06:32;98817.50;;;15.02;82.51
80382;BME280;69692;55.820;37.490;2023-07-13T13:08:59;98828.59;;;15.00;81.72
80382;BME280;69692;55.820;37.490;2023-07-13T13:11:27;98822.13;;;14.96;81.56
80382;BME280;69692;55.820;37.490;2023-07-13T13:13:53;98816.97;;;15.00;82.12
80382;BME280;69692;55.820;37.490;2023-07-13T13:16:26;98817.50;;;15.02;82.30
80382;BME280;69692;55.820;37.490;2023-07-13T13:18:55;98811.00;;;14.98;81.86
80382;BME280;69692;55.820;37.490;2023-07-13T13:21:23;98822.38;;;15.00;83.04
80382;BME280;69692;55.820;37.490;2023-07-13T13:23:49;98820.47;;;15.00;82.33
80382;BME280;69692;55.820;37.490;2023-07-13T13:26:19;98822.13;;;14.96;82.60
80382;BME280;69692;55.820;37.490;2023-07-13T13:28:45;98821.28;;;15.01;82.90
80382;BME280;69692;55.820;37.490;2023-07-13T13:31:13;98816.69;;;15.01;83.17
80382;BME280;69692;55.820;37.490;2023-07-13T13:33:43;98815.34;;;14.99;82.65
80382;BME280;69692;55.820;37.490;2023-07-13T13:36:16;98803.47;;;14.95;82.88
80382;BME280;69692;55.820;37.490;2023-07-13T13:38:43;98809.41;;;14.97;82.34
80382;BME280;69692;55.820;37.490;2023-07-13T13:41:10;98811.00;;;14.98;82.44
80382;BME280;69692;55.820;37.490;2023-07-13T13:43:36;98808.34;;;14.93;81.74